createdAt,value
2023-01-17T00:00:03.703Z,9.711823
2023-01-17T00:01:03.590Z,9.712079
2023-01-17T00:02:03.596Z,9.712522
2023-01-17T00:03:03.614Z,9.712070
2023-01-17T00:04:03.601Z,9.711753
2023-01-17T00:05:03.577Z,9.711851
2023-01-17T00:06:03.580Z,9.712020
2023-01-17T00:07:03.580Z,9.712019
2023-01-17T00:08:03.554Z,9.712064
2023-01-17T00:09:04.391Z,9.711945
2023-01-17T00:10:03.528Z,9.711877
2023-01-17T00:11:03.525Z,9.711779
2023-01-17T00:12:03.510Z,9.711764
2023-01-17T00:13:03.548Z,9.711801
2023-01-17T00:14:03.513Z,9.712049
2023-01-17T00:15:03.491Z,9.712451
2023-01-17T00:16:03.490Z,9.712085
2023-01-17T00:17:03.473Z,9.712369
2023-01-17T00:18:03.971Z,9.712073
2023-01-17T00:19:03.470Z,9.712000
2023-01-17T00:20:03.449Z,9.712055
2023-01-17T00:21:03.467Z,9.711912
2023-01-17T00:22:03.440Z,9.712068
2023-01-17T00:23:03.431Z,9.712148
2023-01-17T00:24:03.421Z,9.712167
2023-01-17T00:29:32.698Z,9.712147
2023-01-17T00:30:32.708Z,9.711395
2023-01-17T00:31:32.705Z,9.711810
2023-01-17T00:32:33.558Z,9.711823
2023-01-17T00:33:32.700Z,9.712175
2023-01-17T00:34:32.664Z,9.712251
2023-01-17T00:35:32.651Z,9.712319
2023-01-17T00:36:32.644Z,9.712164
2023-01-17T00:37:32.629Z,9.712050
2023-01-17T00:38:32.630Z,9.712089
2023-01-17T00:39:32.623Z,9.711843
2023-01-17T00:40:32.616Z,9.712092
2023-01-17T00:41:32.605Z,9.711834
2023-01-17T00:42:32.605Z,9.711733
2023-01-17T00:43:32.597Z,9.711779
2023-01-17T00:44:32.576Z,9.711720
2023-01-17T00:45:32.569Z,9.711759
2023-01-17T00:46:32.625Z,9.712110
2023-01-17T00:47:32.549Z,9.712030
2023-01-17T00:48:32.552Z,9.711738
2023-01-17T00:49:32.559Z,9.712052
2023-01-17T00:50:32.525Z,9.712077
2023-01-17T00:51:33.068Z,9.711976
2023-01-17T00:52:32.519Z,9.711636
2023-01-17T00:53:32.532Z,9.711613
2023-01-17T00:54:32.512Z,9.711629
2023-01-17T00:55:32.497Z,9.711714
2023-01-17T00:56:32.493Z,9.711638
2023-01-17T00:57:32.478Z,9.711650
2023-01-17T00:58:32.580Z,9.711677
2023-01-17T00:59:32.462Z,9.711612
2023-01-17T01:00:32.521Z,9.711658
2023-01-17T01:01:32.533Z,9.711700
2023-01-17T01:02:32.552Z,9.711635
2023-01-17T01:03:32.441Z,9.711569
2023-01-17T01:04:32.429Z,9.711539
2023-01-17T01:05:32.425Z,9.711564
2023-01-17T01:06:32.410Z,9.711609
2023-01-17T01:07:32.399Z,9.711593
2023-01-17T01:08:32.402Z,9.711640
2023-01-17T01:09:32.379Z,9.711606
2023-01-17T01:10:33.094Z,9.711523
2023-01-17T01:11:32.377Z,9.711563
2023-01-17T01:12:32.363Z,9.711558
2023-01-17T01:13:32.345Z,9.711544
2023-01-17T01:14:32.327Z,9.711563
2023-01-17T01:15:33.339Z,9.711680
2023-01-17T01:16:32.390Z,9.711628
2023-01-17T01:17:32.339Z,9.711607
2023-01-17T01:18:32.308Z,9.711622
2023-01-17T01:19:32.388Z,9.711623
2023-01-17T01:20:32.312Z,9.711625
2023-01-17T01:21:32.295Z,9.711619
2023-01-17T01:22:32.290Z,9.711748
2023-01-17T01:23:32.295Z,9.711735
2023-01-17T01:24:32.294Z,9.711695
2023-01-17T01:25:32.275Z,9.711734
2023-01-17T01:26:32.280Z,9.711658
2023-01-17T01:27:32.246Z,9.711608
2023-01-17T01:28:32.280Z,9.711617
2023-01-17T01:29:33.237Z,9.711657
2023-01-17T01:30:32.223Z,9.711750
2023-01-17T01:31:32.287Z,9.711727
2023-01-17T01:32:32.213Z,9.711692
2023-01-17T01:33:32.200Z,9.711617
2023-01-17T01:34:32.200Z,9.711600
2023-01-17T01:35:32.175Z,9.711660
2023-01-17T01:36:33.174Z,9.711644
2023-01-17T01:37:32.167Z,9.711667
2023-01-17T01:38:32.166Z,9.711643
2023-01-17T01:39:32.156Z,9.711632
2023-01-17T01:40:32.153Z,9.711675
2023-01-17T01:41:32.142Z,9.711641
2023-01-17T01:42:32.127Z,9.711615
2023-01-17T01:43:32.118Z,9.711624
2023-01-17T01:44:32.118Z,9.711626
2023-01-17T01:45:32.131Z,9.711633
2023-01-17T01:46:32.108Z,9.711659
2023-01-17T01:47:32.094Z,9.711673
2023-01-17T01:48:32.074Z,9.711706
2023-01-17T01:49:32.078Z,9.711729
2023-01-17T01:50:32.064Z,9.711705
2023-01-17T01:51:32.568Z,9.711596
2023-01-17T01:52:32.584Z,9.711674
2023-01-17T01:53:32.048Z,9.711587
2023-01-17T01:54:32.037Z,9.711578
2023-01-17T01:55:32.029Z,9.711696
2023-01-17T01:56:32.023Z,9.711645
2023-01-17T01:57:32.008Z,9.711762
2023-01-17T01:58:32.015Z,9.711811
2023-01-17T01:59:31.993Z,9.711720
2023-01-17T02:00:31.995Z,9.711735
2023-01-17T02:01:32.279Z,9.711726
2023-01-17T02:02:31.965Z,9.711717
2023-01-17T02:03:32.009Z,9.711707
2023-01-17T02:04:32.948Z,9.711710
2023-01-17T02:05:31.943Z,9.711910
2023-01-17T02:06:31.946Z,9.711933
2023-01-17T02:07:31.925Z,9.711977
2023-01-17T02:08:31.921Z,9.711794
2023-01-17T02:09:31.911Z,9.711779
2023-01-17T02:10:31.917Z,9.711976
2023-01-17T02:11:31.924Z,9.711926
2023-01-17T02:12:31.894Z,9.712064
2023-01-17T02:13:31.881Z,9.711819
2023-01-17T02:14:31.875Z,9.711425
2023-01-17T02:15:31.871Z,9.711691
2023-01-17T02:16:31.905Z,9.711786
2023-01-17T02:17:32.506Z,9.711660
2023-01-17T02:18:31.850Z,9.711713
2023-01-17T02:19:31.851Z,9.711638
2023-01-17T02:20:31.837Z,9.711849
2023-01-17T02:21:31.831Z,9.711805
2023-01-17T02:22:31.811Z,9.711633
2023-01-17T02:23:31.804Z,9.711508
2023-01-17T02:24:31.802Z,9.711719
2023-01-17T02:25:31.793Z,9.711631
2023-01-17T02:26:31.791Z,9.711674
2023-01-17T02:27:31.786Z,9.711730
2023-01-17T02:28:31.773Z,9.711672
2023-01-17T02:29:31.763Z,9.711713
2023-01-17T02:30:31.759Z,9.711704
2023-01-17T02:31:31.813Z,9.711621
2023-01-17T02:32:31.743Z,9.711357
2023-01-17T02:33:31.739Z,9.711559
2023-01-17T02:34:31.716Z,9.711620
2023-01-17T02:35:31.708Z,9.711662
2023-01-17T02:36:31.739Z,9.711579
2023-01-17T02:37:31.698Z,9.711763
2023-01-17T02:38:31.685Z,9.711749
2023-01-17T02:39:31.690Z,9.711751
2023-01-17T02:40:31.678Z,9.711753
2023-01-17T02:41:31.672Z,9.711675
2023-01-17T02:42:31.659Z,9.711709
2023-01-17T02:43:31.645Z,9.711638
2023-01-17T02:44:31.699Z,9.711727
2023-01-17T02:45:31.675Z,9.711871
2023-01-17T02:46:31.637Z,9.711959
2023-01-17T02:47:31.621Z,9.711965
2023-01-17T02:48:31.615Z,9.712218
2023-01-17T02:49:31.610Z,9.711913
2023-01-17T02:50:31.595Z,9.712457
2023-01-17T02:51:31.596Z,9.712103
2023-01-17T02:52:31.583Z,9.712111
2023-01-17T02:53:31.575Z,9.712329
2023-01-17T02:54:31.553Z,9.712378
2023-01-17T02:55:31.555Z,9.712084
2023-01-17T02:56:32.581Z,9.712015
2023-01-17T02:57:32.547Z,9.712303
2023-01-17T02:58:31.526Z,9.712252
2023-01-17T02:59:31.519Z,9.711781
2023-01-17T03:00:31.527Z,9.711759
2023-01-17T03:01:31.616Z,9.711832
2023-01-17T03:02:31.542Z,9.711853
2023-01-17T03:03:31.495Z,9.711679
2023-01-17T03:04:31.479Z,9.711609
2023-01-17T03:05:31.487Z,9.711047
2023-01-17T03:06:31.485Z,9.711222
2023-01-17T03:07:31.473Z,9.711354
2023-01-17T03:08:31.480Z,9.711452
2023-01-17T03:09:31.447Z,9.711329
2023-01-17T03:10:31.439Z,9.711314
2023-01-17T03:11:31.427Z,9.711329
2023-01-17T03:12:31.419Z,9.711475
2023-01-17T03:13:31.434Z,9.711302
2023-01-17T03:14:31.409Z,9.711328
2023-01-17T03:15:31.398Z,9.711372
2023-01-17T03:16:31.469Z,9.711550
2023-01-17T03:17:31.387Z,9.711478
2023-01-17T03:18:31.370Z,9.711411
2023-01-17T03:19:31.378Z,9.711505
2023-01-17T03:20:31.358Z,9.711435
2023-01-17T03:21:31.352Z,9.711384
2023-01-17T03:22:31.349Z,9.711477
2023-01-17T03:23:31.346Z,9.711377
2023-01-17T03:24:31.329Z,9.711443
2023-01-17T03:25:31.323Z,9.711570
2023-01-17T03:26:31.318Z,9.711250
2023-01-17T03:27:31.304Z,9.711275
2023-01-17T03:28:31.295Z,9.711728
2023-01-17T03:29:31.300Z,9.711525
2023-01-17T03:30:31.370Z,9.711624
2023-01-17T03:31:31.288Z,9.711640
2023-01-17T03:32:31.276Z,9.711713
2023-01-17T03:33:31.260Z,9.711634
2023-01-17T03:34:31.265Z,9.711617
2023-01-17T03:35:32.088Z,9.711633
2023-01-17T03:36:31.237Z,9.711706
2023-01-17T03:37:31.241Z,9.711660
2023-01-17T03:38:31.219Z,9.711468
2023-01-17T03:39:31.217Z,9.711523
2023-01-17T03:40:31.207Z,9.711614
2023-01-17T03:41:31.203Z,9.711659
2023-01-17T03:42:31.186Z,9.711632
2023-01-17T03:43:31.191Z,9.711728
2023-01-17T03:44:31.187Z,9.711860
2023-01-17T03:45:31.231Z,9.711868
2023-01-17T03:46:31.182Z,9.711612
2023-01-17T03:47:31.153Z,9.711630
2023-01-17T03:48:31.154Z,9.711617
2023-01-17T03:49:31.155Z,9.711767
2023-01-17T03:50:31.132Z,9.711692
2023-01-17T03:51:31.128Z,9.711565
2023-01-17T03:52:31.120Z,9.711632
2023-01-17T03:53:31.109Z,9.711698
2023-01-17T03:54:31.104Z,9.711923
2023-01-17T03:55:31.091Z,9.711755
2023-01-17T03:56:31.082Z,9.711756
2023-01-17T03:57:31.071Z,9.711791
2023-01-17T03:58:31.067Z,9.711779
2023-01-17T03:59:31.061Z,9.711738
2023-01-17T04:00:31.050Z,9.711793
2023-01-17T04:01:31.146Z,9.711723
2023-01-17T04:02:31.073Z,9.711541
2023-01-17T04:03:31.029Z,9.711809
2023-01-17T04:04:31.024Z,9.711742
2023-01-17T04:05:31.012Z,9.711761
2023-01-17T04:06:31.013Z,9.711769
2023-01-17T04:07:30.994Z,9.711779
2023-01-17T04:08:30.990Z,9.711785
2023-01-17T04:09:30.997Z,9.711700
2023-01-17T04:10:30.975Z,9.711745
2023-01-17T04:11:31.600Z,9.711725
2023-01-17T04:12:30.959Z,9.711813
2023-01-17T04:13:30.947Z,9.711801
2023-01-17T04:14:30.956Z,9.711758
2023-01-17T04:15:30.932Z,9.711752
2023-01-17T04:16:30.961Z,9.711938
2023-01-17T04:17:30.932Z,9.711905
2023-01-17T04:18:30.918Z,9.711736
2023-01-17T04:19:30.910Z,9.711812
2023-01-17T04:20:30.943Z,9.711784
2023-01-17T04:21:30.886Z,9.711841
2023-01-17T04:22:30.896Z,9.711687
2023-01-17T04:23:30.878Z,9.711694
2023-01-17T04:24:30.868Z,9.711807
2023-01-17T04:25:31.026Z,9.711781
2023-01-17T04:26:30.859Z,9.711774
2023-01-17T04:27:30.867Z,9.711892
2023-01-17T04:28:30.841Z,9.711994
2023-01-17T04:29:30.829Z,9.711975
2023-01-17T04:30:30.849Z,9.712066
2023-01-17T04:31:30.843Z,9.712223
2023-01-17T04:32:30.807Z,9.712291
2023-01-17T04:33:30.814Z,9.712360
2023-01-17T04:34:30.798Z,9.712481
2023-01-17T04:35:31.522Z,9.712345
2023-01-17T04:36:30.793Z,9.712338
2023-01-17T04:37:30.779Z,9.712037
2023-01-17T04:38:30.777Z,9.711794
2023-01-17T04:39:30.763Z,9.712040
2023-01-17T04:40:30.758Z,9.712324
2023-01-17T04:41:30.746Z,9.712300
2023-01-17T04:42:30.736Z,9.712328
2023-01-17T04:43:30.732Z,9.712386
2023-01-17T04:44:30.726Z,9.712493
2023-01-17T04:45:30.716Z,9.711772
2023-01-17T04:46:30.729Z,9.711935
2023-01-17T04:47:30.712Z,9.711944
2023-01-17T04:48:30.690Z,9.711725
2023-01-17T04:49:30.691Z,9.711559
2023-01-17T04:50:30.676Z,9.711464
2023-01-17T04:51:30.669Z,9.711546
2023-01-17T04:52:30.656Z,9.711470
2023-01-17T04:53:30.649Z,9.711376
2023-01-17T04:54:30.642Z,9.711446
2023-01-17T04:55:30.632Z,9.711365
2023-01-17T04:56:30.633Z,9.711373
2023-01-17T04:57:30.616Z,9.711418
2023-01-17T04:58:30.637Z,9.711408
2023-01-17T04:59:30.605Z,9.711440
2023-01-17T05:00:30.600Z,9.711295
2023-01-17T05:01:30.725Z,9.711398
2023-01-17T05:02:30.602Z,9.711407
2023-01-17T05:03:30.572Z,9.711367
2023-01-17T05:04:30.559Z,9.711449
2023-01-17T05:05:30.559Z,9.711398
2023-01-17T05:06:30.571Z,9.711496
2023-01-17T05:07:30.557Z,9.711545
2023-01-17T05:08:30.553Z,9.711408
2023-01-17T05:09:30.537Z,9.711482
2023-01-17T05:10:30.516Z,9.711367
2023-01-17T05:11:30.508Z,9.711551
2023-01-17T05:12:30.525Z,9.711510
2023-01-17T05:13:30.496Z,9.711565
2023-01-17T05:14:30.488Z,9.711605
2023-01-17T05:15:30.508Z,9.711517
2023-01-17T05:16:30.467Z,9.711495
2023-01-17T05:17:30.475Z,9.711534
2023-01-17T05:18:30.454Z,9.711580
2023-01-17T05:19:30.448Z,9.711550
2023-01-17T05:20:30.438Z,9.711530
2023-01-17T05:21:30.431Z,9.711369
2023-01-17T05:22:30.419Z,9.711401
2023-01-17T05:23:30.418Z,9.711513
2023-01-17T05:24:30.425Z,9.711471
2023-01-17T05:25:30.399Z,9.711451
2023-01-17T05:26:31.105Z,9.711631
2023-01-17T05:27:30.378Z,9.711517
2023-01-17T05:28:30.371Z,9.711481
2023-01-17T05:29:30.399Z,9.711522
2023-01-17T05:30:30.371Z,9.711536
2023-01-17T05:31:30.355Z,9.711649
2023-01-17T05:32:30.341Z,9.711654
2023-01-17T05:33:30.347Z,9.711690
2023-01-17T05:34:30.316Z,9.711635
2023-01-17T05:35:30.339Z,9.711566
2023-01-17T05:36:30.316Z,9.711535
2023-01-17T05:37:30.312Z,9.711472
2023-01-17T05:38:30.314Z,9.711545
2023-01-17T05:39:30.292Z,9.711643
2023-01-17T05:40:30.298Z,9.711630
2023-01-17T05:41:30.268Z,9.711836
2023-01-17T05:42:30.261Z,9.711658
2023-01-17T05:43:30.267Z,9.711804
2023-01-17T05:44:30.247Z,9.711739
2023-01-17T05:45:30.232Z,9.711733
2023-01-17T05:46:30.275Z,9.711560
2023-01-17T05:47:30.229Z,9.711625
2023-01-17T05:48:30.216Z,9.711644
2023-01-17T05:49:30.210Z,9.711752
2023-01-17T05:50:30.220Z,9.711804
2023-01-17T05:51:30.201Z,9.712404
2023-01-17T05:52:30.195Z,9.712931
2023-01-17T05:53:30.200Z,9.712586
2023-01-17T05:54:30.168Z,9.712425
2023-01-17T05:55:30.193Z,9.712379
2023-01-17T05:56:30.168Z,9.712518
2023-01-17T05:57:30.151Z,9.712243
2023-01-17T05:58:30.142Z,9.712325
2023-01-17T05:59:37.133Z,9.712500
2023-01-17T06:00:32.125Z,9.712461
2023-01-17T06:01:30.128Z,9.712477
2023-01-17T06:02:30.129Z,9.712599
2023-01-17T06:03:30.109Z,9.712357
2023-01-17T06:04:30.185Z,9.711732
2023-01-17T06:05:30.635Z,9.711766
2023-01-17T06:06:30.074Z,9.711744
2023-01-17T06:07:30.067Z,9.711684
2023-01-17T06:08:30.058Z,9.711636
2023-01-17T06:09:30.091Z,9.711658
2023-01-17T06:10:30.048Z,9.711662
2023-01-17T06:11:30.045Z,9.711700
2023-01-17T06:12:30.058Z,9.711690
2023-01-17T06:13:30.015Z,9.711709
2023-01-17T06:14:30.012Z,9.711700
2023-01-17T06:15:29.999Z,9.711700
2023-01-17T06:16:30.024Z,9.711707
2023-01-17T06:17:30.530Z,9.711738
2023-01-17T06:18:29.969Z,9.711727
2023-01-17T06:19:29.978Z,9.711750
2023-01-17T06:20:29.964Z,9.711716
2023-01-17T06:21:29.958Z,9.711806
2023-01-17T06:22:29.955Z,9.711725
2023-01-17T06:23:29.943Z,9.711657
2023-01-17T06:24:29.930Z,9.711633
2023-01-17T06:25:29.942Z,9.711641
2023-01-17T06:26:29.927Z,9.711682
2023-01-17T06:27:29.921Z,9.711671
2023-01-17T06:28:29.900Z,9.711710
2023-01-17T06:29:29.897Z,9.711690
2023-01-17T06:30:29.892Z,9.711719
2023-01-17T06:31:30.603Z,9.711650
2023-01-17T06:32:29.877Z,9.711710
2023-01-17T06:33:29.864Z,9.711721
2023-01-17T06:34:30.538Z,9.711736
2023-01-17T06:35:29.856Z,9.711724
2023-01-17T06:36:29.849Z,9.711698
2023-01-17T06:37:31.059Z,9.711670
2023-01-17T06:38:29.849Z,9.711699
2023-01-17T06:39:31.615Z,9.711707
2023-01-17T06:40:29.825Z,9.711694
2023-01-17T06:41:29.812Z,9.711711
2023-01-17T06:42:29.795Z,9.711720
2023-01-17T06:43:29.790Z,9.711723
2023-01-17T06:44:29.774Z,9.711677
2023-01-17T06:45:29.775Z,9.711698
2023-01-17T06:46:29.801Z,9.711699
2023-01-17T06:47:30.618Z,9.711637
2023-01-17T06:48:29.751Z,9.711741
2023-01-17T06:49:29.759Z,9.711733
2023-01-17T06:50:30.623Z,9.711701
2023-01-17T06:51:29.717Z,9.711756
2023-01-17T06:52:29.726Z,9.711814
2023-01-17T06:53:29.710Z,9.711721
2023-01-17T06:54:29.703Z,9.711701
2023-01-17T06:55:29.695Z,9.711739
2023-01-17T06:56:29.693Z,9.711720
2023-01-17T06:57:30.566Z,9.711732
2023-01-17T06:58:30.668Z,9.711740
2023-01-17T06:59:29.663Z,9.711894
2023-01-17T07:00:30.338Z,9.711679
2023-01-17T07:01:29.789Z,9.711770
2023-01-17T07:02:29.660Z,9.711726
2023-01-17T07:03:29.662Z,9.711757
2023-01-17T07:04:38.110Z,9.711740
2023-01-17T07:05:29.636Z,9.711658
2023-01-17T07:06:29.621Z,9.711799
2023-01-17T07:07:29.613Z,9.711777
2023-01-17T07:08:29.703Z,9.711757
2023-01-17T07:09:30.575Z,9.711819
2023-01-17T07:10:35.216Z,9.711744
2023-01-17T07:16:41.070Z,9.711598
2023-01-17T07:17:41.067Z,9.711482
2023-01-17T07:18:41.056Z,9.711593
2023-01-17T07:19:41.046Z,9.711593
2023-01-17T07:20:41.048Z,9.711593
2023-01-17T07:21:41.041Z,9.711572
2023-01-17T07:22:41.022Z,9.711514
2023-01-17T07:23:41.019Z,9.711502
2023-01-17T07:24:41.943Z,9.711413
2023-01-17T07:25:41.008Z,9.711492
2023-01-17T07:29:49.441Z,9.711566
2023-01-17T07:30:49.431Z,9.711575
2023-01-17T07:31:49.458Z,9.711732
2023-01-17T07:32:49.436Z,9.711620
2023-01-17T07:33:50.297Z,9.711572
2023-01-17T07:34:49.383Z,9.711491
2023-01-17T07:35:49.401Z,9.711595
2023-01-17T07:36:49.387Z,9.711670
2023-01-17T07:37:49.378Z,9.711623
2023-01-17T07:38:49.361Z,9.711605
2023-01-17T07:39:49.385Z,9.711367
2023-01-17T07:40:49.354Z,9.711494
2023-01-17T07:41:49.344Z,9.711505
2023-01-17T07:42:49.345Z,9.711740
2023-01-17T07:43:49.329Z,9.711722
2023-01-17T07:44:49.322Z,9.711691
2023-01-17T07:45:49.312Z,9.711833
2023-01-17T07:46:49.455Z,9.711807
2023-01-17T07:47:49.291Z,9.711857
2023-01-17T07:51:58.518Z,9.711832
2023-01-17T07:52:56.663Z,9.711676
2023-01-17T07:53:56.651Z,9.711416
2023-01-17T07:54:57.476Z,9.711552
2023-01-17T07:55:56.699Z,9.711683
2023-01-17T07:56:56.627Z,9.711465
2023-01-17T07:57:56.621Z,9.711574
2023-01-17T07:58:56.617Z,9.711606
2023-01-17T07:59:56.603Z,9.711513
2023-01-17T08:00:56.700Z,9.711682
2023-01-17T08:01:56.795Z,9.711670
2023-01-17T08:02:56.566Z,9.711775
2023-01-17T08:03:56.640Z,9.711815
2023-01-17T08:04:56.554Z,9.711736
2023-01-17T08:05:56.538Z,9.711768
2023-01-17T08:06:56.549Z,9.711739
2023-01-17T08:11:04.177Z,9.711617
2023-01-17T08:12:04.200Z,9.711682
2023-01-17T08:13:04.163Z,9.711666
2023-01-17T08:14:04.195Z,9.711655
2023-01-17T08:15:04.140Z,9.711717
2023-01-17T08:16:04.211Z,9.711713
2023-01-17T08:17:04.136Z,9.711670
2023-01-17T08:18:04.108Z,9.711609
2023-01-17T08:19:04.703Z,9.711619
2023-01-17T08:20:04.103Z,9.711645
2023-01-17T08:21:04.138Z,9.711683
2023-01-17T08:22:04.096Z,9.711650
2023-01-17T08:23:04.078Z,9.711658
2023-01-17T08:24:04.064Z,9.711658
2023-01-17T08:25:04.094Z,9.711670
2023-01-17T08:26:04.047Z,9.711670
2023-01-17T08:27:04.056Z,9.711745
2023-01-17T08:28:04.036Z,9.711695
2023-01-17T08:29:04.036Z,9.711660
2023-01-17T08:30:05.023Z,9.711643
2023-01-17T08:31:04.815Z,9.711620
2023-01-17T08:32:04.017Z,9.711692
2023-01-17T08:33:03.991Z,9.711666
2023-01-17T08:34:03.979Z,9.711706
2023-01-17T08:35:04.105Z,9.711729
2023-01-17T08:36:03.962Z,9.711704
2023-01-17T08:37:03.951Z,9.711716
2023-01-17T08:38:03.946Z,9.711750
2023-01-17T08:39:03.943Z,9.712183
2023-01-17T08:40:03.956Z,9.711929
2023-01-17T08:41:03.925Z,9.711833
2023-01-17T08:42:03.934Z,9.711757
2023-01-17T08:43:03.931Z,9.711702
2023-01-17T08:44:03.897Z,9.711710
2023-01-17T08:45:03.910Z,9.711629
2023-01-17T08:46:04.771Z,9.711624
2023-01-17T08:47:04.745Z,9.711588
2023-01-17T08:48:03.873Z,9.711672
2023-01-17T08:49:03.873Z,9.711640
2023-01-17T08:50:03.844Z,9.711561
2023-01-17T08:51:04.859Z,9.711615
2023-01-17T08:52:03.833Z,9.711846
2023-01-17T08:53:03.834Z,9.711849
2023-01-17T08:54:03.837Z,9.711839
2023-01-17T08:55:03.885Z,9.711743
2023-01-17T08:56:03.812Z,9.711756
2023-01-17T08:57:03.796Z,9.711882
2023-01-17T08:58:03.858Z,9.711925
2023-01-17T08:59:03.822Z,9.712049
2023-01-17T09:00:04.353Z,9.712220
2023-01-17T09:01:04.924Z,9.712182
2023-01-17T09:02:03.885Z,9.712057
2023-01-17T09:03:03.777Z,9.711847
2023-01-17T09:04:03.790Z,9.711913
2023-01-17T09:05:03.767Z,9.712016
2023-01-17T09:06:03.735Z,9.712019
2023-01-17T09:07:03.713Z,9.711967
2023-01-17T09:08:04.318Z,9.711995
2023-01-17T09:09:04.699Z,9.711933
2023-01-17T09:10:03.696Z,9.711649
2023-01-17T09:11:03.691Z,9.711703
2023-01-17T09:12:03.671Z,9.711757
2023-01-17T09:13:03.683Z,9.711770
2023-01-17T09:14:03.683Z,9.711713
2023-01-17T09:15:03.659Z,9.711719
2023-01-17T09:16:03.643Z,9.711704
2023-01-17T09:17:09.275Z,9.711693
2023-01-17T09:18:03.641Z,9.711689
2023-01-17T09:19:04.358Z,9.711718
2023-01-17T09:20:03.618Z,9.711692
2023-01-17T09:21:03.607Z,9.711691
2023-01-17T09:22:03.585Z,9.711695
2023-01-17T09:23:04.273Z,9.711658
2023-01-17T09:24:03.588Z,9.711702
2023-01-17T09:25:03.578Z,9.711703
2023-01-17T09:26:03.564Z,9.711684
2023-01-17T09:27:03.569Z,9.711703
2023-01-17T09:28:03.541Z,9.711735
2023-01-17T09:29:03.550Z,9.711716
2023-01-17T09:30:03.530Z,9.711763
2023-01-17T09:31:03.615Z,9.711751
2023-01-17T09:32:03.510Z,9.711731
2023-01-17T09:33:03.514Z,9.711660
2023-01-17T09:34:03.493Z,9.711589
2023-01-17T09:35:03.504Z,9.711656
2023-01-17T09:36:03.481Z,9.711732
2023-01-17T09:37:03.498Z,9.711749
2023-01-17T09:38:03.460Z,9.711688
2023-01-17T09:39:03.457Z,9.711782
2023-01-17T09:40:03.453Z,9.711699
2023-01-17T09:41:03.463Z,9.711684
2023-01-17T09:42:03.430Z,9.711689
2023-01-17T09:43:03.459Z,9.711668
2023-01-17T09:44:03.421Z,9.711628
2023-01-17T09:45:03.433Z,9.711676
2023-01-17T09:46:03.676Z,9.711595
2023-01-17T09:50:11.349Z,9.711214
2023-01-17T09:51:11.341Z,9.711256
2023-01-17T09:52:11.338Z,9.711226
2023-01-17T09:53:11.328Z,9.711191
2023-01-17T09:54:11.319Z,9.711470
2023-01-17T09:55:11.304Z,9.711610
2023-01-17T09:56:11.303Z,9.711727
2023-01-17T09:57:11.285Z,9.711623
2023-01-17T09:58:11.289Z,9.711645
2023-01-17T09:59:11.278Z,9.711625
2023-01-17T10:00:11.263Z,9.711646
2023-01-17T10:01:11.417Z,9.711658
2023-01-17T10:02:11.517Z,9.711632
2023-01-17T10:03:11.364Z,9.711540
2023-01-17T10:04:11.240Z,9.711539
2023-01-17T10:05:11.254Z,9.711742
2023-01-17T10:06:11.240Z,9.711575
2023-01-17T10:07:11.234Z,9.711536
2023-01-17T10:08:11.221Z,9.711493
2023-01-17T10:09:11.198Z,9.711382
2023-01-17T10:10:11.191Z,9.711569
2023-01-17T10:11:11.197Z,9.711608
2023-01-17T10:12:11.191Z,9.711511
2023-01-17T10:13:12.632Z,9.711494
2023-01-17T10:14:11.164Z,9.711254
2023-01-17T10:21:19.810Z,9.712094
2023-01-17T10:22:19.154Z,9.712160
2023-01-17T10:23:19.812Z,9.712485
2023-01-17T10:24:19.972Z,9.712496
2023-01-17T10:25:25.402Z,9.712481
2023-01-17T10:26:28.304Z,9.712461
2023-01-17T10:27:28.313Z,9.712405
2023-01-17T10:28:42.829Z,9.712149
2023-01-17T10:30:08.814Z,9.712061
2023-01-17T10:31:13.478Z,9.711902
2023-01-17T10:31:18.972Z,9.712004
2023-01-17T10:32:19.487Z,9.711987
2023-01-17T10:33:18.956Z,9.711968
2023-01-17T10:34:18.946Z,9.711954
2023-01-17T10:35:18.939Z,9.711731
2023-01-17T10:36:18.945Z,9.711700
2023-01-17T10:37:18.961Z,9.711720
2023-01-17T10:38:18.957Z,9.711695
2023-01-17T10:39:18.925Z,9.711709
2023-01-17T10:40:18.941Z,9.711707
2023-01-17T10:41:19.888Z,9.711730
2023-01-17T10:42:18.884Z,9.711704
2023-01-17T10:43:18.870Z,9.711759
2023-01-17T10:44:18.866Z,9.711679
2023-01-17T10:45:18.851Z,9.711656
2023-01-17T10:46:18.928Z,9.711655
2023-01-17T10:47:18.837Z,9.711664
2023-01-17T10:48:18.834Z,9.711663
2023-01-17T10:49:18.827Z,9.711652
2023-01-17T10:50:18.827Z,9.711680
2023-01-17T10:51:18.851Z,9.711650
2023-01-17T10:52:18.816Z,9.711632
2023-01-17T10:53:18.793Z,9.711630
2023-01-17T10:54:18.784Z,9.711691
2023-01-17T10:55:20.505Z,9.711683
2023-01-17T10:56:19.411Z,9.711706
2023-01-17T10:57:18.758Z,9.711674
2023-01-17T10:58:18.758Z,9.711668
2023-01-17T10:59:18.781Z,9.711691
2023-01-17T11:00:18.724Z,9.711740
2023-01-17T11:01:18.780Z,9.711630
2023-01-17T11:02:18.873Z,9.711719
2023-01-17T11:03:18.730Z,9.711740
2023-01-17T11:04:18.763Z,9.711682
2023-01-17T11:05:18.688Z,9.711734
2023-01-17T11:06:18.718Z,9.711746
2023-01-17T11:07:18.724Z,9.711709
2023-01-17T11:08:18.671Z,9.711664
2023-01-17T21:27:40.855Z,9.711629
2023-01-17T21:28:40.842Z,9.711628
2023-01-17T21:29:40.842Z,9.711638
2023-01-17T21:30:40.931Z,9.711658
2023-01-17T21:31:40.832Z,9.711677
2023-01-17T21:32:40.809Z,9.711640
2023-01-17T21:33:40.801Z,9.711677
2023-01-17T21:34:41.418Z,9.711644
2023-01-17T21:35:40.785Z,9.711643
2023-01-17T21:36:40.803Z,9.711637
2023-01-17T21:37:40.771Z,9.711669
2023-01-17T21:38:40.778Z,9.711650
2023-01-17T21:39:40.759Z,9.711605
2023-01-17T21:40:40.747Z,9.711580
2023-01-17T21:41:40.741Z,9.711646
2023-01-17T21:42:40.732Z,9.711679
2023-01-17T21:43:40.739Z,9.711714
2023-01-17T21:44:40.717Z,9.711659
2023-01-17T21:45:40.719Z,9.711673
2023-01-17T21:46:40.711Z,9.711612
2023-01-17T21:47:40.706Z,9.711438
2023-01-17T21:48:40.704Z,9.711500
2023-01-17T21:49:40.698Z,9.711304
2023-01-17T21:50:40.680Z,9.711432
2023-01-17T21:51:40.669Z,9.711553
2023-01-17T21:52:40.662Z,9.711600
2023-01-17T21:53:40.658Z,9.711544
2023-01-17T21:54:40.662Z,9.711443
2023-01-17T21:55:40.642Z,9.711371
2023-01-17T21:56:40.628Z,9.711561
2023-01-17T21:57:40.662Z,9.711627
2023-01-17T21:58:40.663Z,9.711782
2023-01-17T21:59:40.617Z,9.711870
2023-01-17T22:00:41.509Z,9.711800
2023-01-17T22:01:41.597Z,9.711800
2023-01-17T22:02:40.620Z,9.711800
2023-01-17T22:03:40.616Z,9.711800
2023-01-17T22:04:40.574Z,9.711800
2023-01-17T22:05:40.572Z,9.711882
2023-01-17T22:06:40.545Z,9.711882
2023-01-17T22:07:40.543Z,9.711882
2023-01-17T22:08:40.541Z,9.711882
2023-01-17T22:09:40.528Z,9.711882
2023-01-17T22:10:40.529Z,9.711980
2023-01-17T22:11:40.529Z,9.711904
2023-01-17T22:12:41.479Z,9.711692
2023-01-17T22:13:41.422Z,9.711687
2023-01-17T22:14:40.488Z,9.711541
2023-01-17T22:15:41.050Z,9.711653
2023-01-17T22:16:40.481Z,9.711574
2023-01-17T22:17:40.462Z,9.711614
2023-01-17T22:18:40.472Z,9.711617
2023-01-17T22:19:40.459Z,9.711561
2023-01-17T22:20:40.455Z,9.711566
2023-01-17T22:21:40.462Z,9.711548
2023-01-17T22:22:40.429Z,9.711594
2023-01-17T22:23:40.433Z,9.711686
2023-01-17T22:24:40.458Z,9.711770
2023-01-17T22:25:40.421Z,9.711801
2023-01-17T22:26:41.908Z,9.711824
2023-01-17T22:27:41.393Z,9.711716
2023-01-17T22:28:41.383Z,9.711789
2023-01-17T22:29:40.385Z,9.711766
2023-01-17T22:30:40.405Z,9.711771